Mira Loma, CA

3:33 PM PDT on May 22, 2015 (GMT -0700)
Ontario International | | Change Station
CLOSE
Current Station
Airport
Location: Ontario,
Elevation: 942 ft
Nearby Weather Stations
Active Advisory: Flood Watch / Flood Statement Active Notice: Record Report

Elev 942 ft 34.06 °N, 117.60 °W | Updated 40 minutes ago

Overcast
Overcast
61 °F
Feels Like 61 °F
N
6
Wind Variable Wind from WSW

Today
High -- | Low -- °F
--% Chance of Precip.
Yesterday
High -- | Low -- °F
Precip. -- in
5:44 AM 7:49 PM
Waxing Crescent, 24% visible
Pressure 30.01 in
Visibility 10.0 miles
Clouds Few 3300 ft
Overcast 3900 ft
Dew Point 47 °F
Humidity 60%
Rainfall 0.00 in
Snow Depth Not available.
UV 3 out of 12
Pollen 4.00 out of 12
Air Quality Not available.
Flu Activity Sporadic
METAR KONT 222153Z 25005KT 10SM FEW033 OVC039 16/08 A3002 RMK AO2 SLP161 T01610083

More Conditions Fewer Conditions

Pressure 30.01 in
Visibility 10.0 miles
Clouds Few 3300 ft
Overcast 3900 ft
Dew Point 47 °F
Humidity 60%
Rainfall 0.00 in
Snow Depth Not available.
UV 3 out of 12
Pollen 4.00 out of 12
Air Quality Not available.
Flu Activity Sporadic
METAR KONT 222153Z 25005KT 10SM FEW033 OVC039 16/08 A3002 RMK AO2 SLP161 T01610083

More Conditions Fewer Conditions

10-Day Weather Forecast

Almanac

Astronomy

May. 22, 2015 Rise Set
Actual Time
Civil Twilight
Nautical Twilight
Astronomical Twilight
Moon
Length of Visible Light
Length of Day
Tomorrow will be .
, % of the Moon is Illuminated

Today's Extremes

State Highs State Lows

Community

WunderPhotos

Upload Photos

1,823,324 photos uploaded!

WunderBlogs® & News

Nearby

Air Quality

  Air Quality AQ Index Pollutant
Not available.

Snow Depth

Station Depth Elevation

Earthquake Activity

City Distance Mag. Time & Date
Minimum magnitude displayed is 2.5.

Coastal Water Temperatures

Place Temperature

Stations

Nearby Weather Stations

Station Location Temp. Windchill Dew Point Humidity Wind Precip. Elev Updated Type
                   
Flood Watch / Flood Statement
Statement as of 3:27 PM PDT on May 22, 2015

... The Flood Advisory will expire at 330 PM PDT for north central San
Bernardino County...

The showers and thunderstorms have weakened and localized flooding
is no longer expected to pose a threat. Please continue to heed any
Road closures.

Lat... Lon 3531 11550 3548 11547 3557 11535 3547 11522
      3535 11506 3528 11528


Outler